createdAt,value
2019-05-23T00:01:20.569Z,13.23
2019-05-23T00:03:59.290Z,13.18
2019-05-23T00:06:32.549Z,13.12
2019-05-23T00:09:06.749Z,13.07
2019-05-23T00:11:45.235Z,13.17
2019-05-23T00:14:34.139Z,13.12
2019-05-23T00:17:06.362Z,13.17
2019-05-23T00:19:40.119Z,13.24
2019-05-23T00:22:12.907Z,13.13
2019-05-23T00:24:46.084Z,13.07
2019-05-23T00:27:20.076Z,13.03
2019-05-23T00:29:52.015Z,13.04
2019-05-23T00:32:37.963Z,13.06
2019-05-23T00:35:12.457Z,13.11
2019-05-23T00:37:46.462Z,13.06
2019-05-23T00:40:19.718Z,13.05
2019-05-23T00:42:53.785Z,13.20
2019-05-23T00:45:27.017Z,13.18
2019-05-23T00:48:00.495Z,13.13
2019-05-23T00:50:34.835Z,13.17
2019-05-23T00:53:07.301Z,13.13
2019-05-23T00:55:40.161Z,13.13
2019-05-23T00:58:14.626Z,13.13
2019-05-23T01:00:48.440Z,13.09
2019-05-23T01:03:22.686Z,13.08
2019-05-23T01:05:55.507Z,13.03
2019-05-23T01:08:28.243Z,12.99
2019-05-23T01:11:00.975Z,12.97
2019-05-23T01:13:33.883Z,12.96
2019-05-23T01:16:07.181Z,12.93
2019-05-23T01:18:40.177Z,12.93
2019-05-23T01:21:30.648Z,12.86
2019-05-23T01:24:25.456Z,12.81
2019-05-23T01:26:58.488Z,12.82
2019-05-23T01:29:37.754Z,12.80
2019-05-23T01:32:13.795Z,12.82
2019-05-23T01:34:46.320Z,12.83
2019-05-23T01:37:20.199Z,12.79
2019-05-23T01:39:53.074Z,12.68
2019-05-23T01:42:26.018Z,12.60
2019-05-23T01:44:58.700Z,12.55
2019-05-23T01:47:30.629Z,12.59
2019-05-23T01:50:03.455Z,12.55
2019-05-23T01:52:36.421Z,12.54
2019-05-23T01:55:08.951Z,12.49
2019-05-23T01:57:41.331Z,12.48
2019-05-23T02:00:15.804Z,12.49
2019-05-23T02:02:48.733Z,12.44
2019-05-23T02:05:21.677Z,12.46
2019-05-23T02:07:54.637Z,12.52
2019-05-23T02:10:27.843Z,12.52
2019-05-23T02:13:01.125Z,12.48
2019-05-23T02:15:33.831Z,12.50
2019-05-23T02:18:06.595Z,12.59
2019-05-23T02:20:39.366Z,12.59
2019-05-23T02:23:13.711Z,12.62
2019-05-23T02:25:46.379Z,12.61
2019-05-23T02:28:19.167Z,12.53
2019-05-23T02:30:54.322Z,12.50
2019-05-23T02:33:28.709Z,12.52
2019-05-23T02:36:01.581Z,12.54
2019-05-23T02:38:47.562Z,12.49
2019-05-23T02:41:34.955Z,12.44
2019-05-23T02:44:14.424Z,12.39
2019-05-23T02:46:55.104Z,12.44
2019-05-23T02:49:30.850Z,12.44
2019-05-23T02:52:34.959Z,12.45
2019-05-23T02:55:17.596Z,12.44
2019-05-23T02:57:52.219Z,12.48
2019-05-23T03:00:54.894Z,12.50
2019-05-23T03:03:30.262Z,12.47
2019-05-23T03:06:04.890Z,12.39
2019-05-23T03:08:37.194Z,12.41
2019-05-23T03:11:35.193Z,12.43
2019-05-23T03:14:09.329Z,12.47
2019-05-23T03:16:45.775Z,12.46
2019-05-23T03:19:39.402Z,12.49
2019-05-23T03:22:52.240Z,12.59
2019-05-23T03:26:27.156Z,12.50
2019-05-23T03:29:00.081Z,12.45
2019-05-23T03:31:39.589Z,12.53
2019-05-23T03:34:14.339Z,12.48
2019-05-23T03:36:46.591Z,12.45
2019-05-23T03:39:18.534Z,12.42
2019-05-23T03:41:50.768Z,12.31
2019-05-23T03:44:23.508Z,12.30
2019-05-23T03:46:57.764Z,12.37
2019-05-23T03:49:31.148Z,12.39
2019-05-23T03:52:04.981Z,12.44
2019-05-23T03:54:37.202Z,12.36
2019-05-23T03:57:11.509Z,12.39
2019-05-23T03:59:45.097Z,12.44
2019-05-23T04:02:19.310Z,12.39
2019-05-23T04:04:52.091Z,12.41
2019-05-23T04:07:24.890Z,12.38
2019-05-23T04:09:56.827Z,12.43
2019-05-23T04:12:29.316Z,12.45
2019-05-23T04:15:01.402Z,12.48
2019-05-23T04:17:33.392Z,12.52
2019-05-23T04:20:07.032Z,12.59
2019-05-23T04:22:38.978Z,12.65
2019-05-23T04:25:11.820Z,12.72
2019-05-23T04:27:44.790Z,12.71
2019-05-23T04:30:17.955Z,12.64
2019-05-23T04:32:50.438Z,12.53
2019-05-23T04:35:22.558Z,12.45
2019-05-23T04:37:55.111Z,12.43
2019-05-23T04:40:27.380Z,12.37
2019-05-23T04:42:59.343Z,12.37
2019-05-23T04:45:31.501Z,12.39
2019-05-23T04:48:05.048Z,12.30
2019-05-23T04:50:37.621Z,12.30
2019-05-23T04:53:09.871Z,12.33
2019-05-23T04:55:43.786Z,12.29
2019-05-23T04:58:15.997Z,12.30
2019-05-23T05:00:48.188Z,12.32
2019-05-23T05:03:20.794Z,12.31
2019-05-23T05:05:53.520Z,12.26
2019-05-23T05:08:25.870Z,12.17
2019-05-23T05:10:58.240Z,12.18
2019-05-23T05:13:30.938Z,12.16
2019-05-23T05:16:03.038Z,12.15
2019-05-23T05:18:35.232Z,12.13
2019-05-23T05:21:08.736Z,12.14
2019-05-23T05:23:40.839Z,12.19
2019-05-23T05:26:22.583Z,12.23
2019-05-23T05:28:54.670Z,12.33
2019-05-23T05:31:26.927Z,12.28
2019-05-23T05:33:59.321Z,12.32
2019-05-23T05:36:31.602Z,12.30
2019-05-23T05:39:03.971Z,12.30
2019-05-23T05:41:37.013Z,12.33
2019-05-23T05:44:11.613Z,12.44
2019-05-23T05:46:42.968Z,12.51
2019-05-23T05:49:15.821Z,12.66
2019-05-23T05:51:47.903Z,12.76
2019-05-23T05:54:20.514Z,12.78
2019-05-23T05:56:52.474Z,12.89
2019-05-23T05:59:24.457Z,12.98
2019-05-23T06:01:56.729Z,13.06
2019-05-23T06:04:28.842Z,13.07
2019-05-23T06:07:26.563Z,13.12
2019-05-23T06:10:00.234Z,13.12
2019-05-23T06:12:32.398Z,13.11
2019-05-23T06:15:04.879Z,13.16
2019-05-23T06:17:37.211Z,13.19
2019-05-23T06:20:10.975Z,13.30
2019-05-23T06:22:44.443Z,13.32
2019-05-23T06:25:16.621Z,13.31
2019-05-23T06:27:48.964Z,13.27
2019-05-23T06:30:23.830Z,13.23
2019-05-23T06:32:56.340Z,13.16
2019-05-23T06:35:28.414Z,13.26
2019-05-23T06:38:01.413Z,13.42
2019-05-23T06:40:35.041Z,13.48
2019-05-23T06:43:07.818Z,13.42
2019-05-23T06:45:42.147Z,13.27
2019-05-23T06:48:15.919Z,13.20
2019-05-23T06:50:48.428Z,13.11
2019-05-23T06:53:20.958Z,13.05
2019-05-23T06:55:53.169Z,13.16
2019-05-23T06:58:25.642Z,13.18
2019-05-23T07:00:57.902Z,13.26
2019-05-23T07:03:41.916Z,13.33
2019-05-23T07:06:04.765Z,13.49
2019-05-23T07:08:36.766Z,13.63
2019-05-23T07:11:08.713Z,13.71
2019-05-23T07:13:42.608Z,13.98
2019-05-23T07:16:14.682Z,13.98
2019-05-23T07:18:46.633Z,13.96
2019-05-23T07:21:18.597Z,14.00
2019-05-23T07:23:51.079Z,14.03
2019-05-23T07:26:23.410Z,14.12
2019-05-23T07:28:55.748Z,14.22
2019-05-23T07:31:28.074Z,14.31
2019-05-23T07:34:02.367Z,14.39
2019-05-23T07:36:34.339Z,14.40
2019-05-23T07:39:11.641Z,14.36
2019-05-23T07:41:43.353Z,14.39
2019-05-23T07:44:15.720Z,14.41
2019-05-23T07:46:47.888Z,14.50
2019-05-23T07:49:20.691Z,14.31
2019-05-23T07:51:52.716Z,14.40
2019-05-23T07:54:38.982Z,14.36
2019-05-23T07:57:13.871Z,14.47
2019-05-23T07:59:46.421Z,14.48
2019-05-23T08:02:27.226Z,14.43
2019-05-23T08:04:59.460Z,14.35
2019-05-23T08:07:32.921Z,14.21
2019-05-23T08:10:06.623Z,14.35
2019-05-23T08:12:39.003Z,14.43
2019-05-23T08:15:11.368Z,14.40
2019-05-23T08:17:43.467Z,14.39
2019-05-23T08:20:17.099Z,14.45
2019-05-23T08:22:49.573Z,14.66
2019-05-23T08:25:21.529Z,14.86
2019-05-23T08:27:53.766Z,14.91
2019-05-23T08:30:25.862Z,14.92
2019-05-23T08:32:58.102Z,15.03
2019-05-23T08:35:30.377Z,15.03
2019-05-23T08:38:03.226Z,15.15
2019-05-23T08:40:36.547Z,15.24
2019-05-23T08:43:08.881Z,15.28
2019-05-23T08:45:41.113Z,15.32
2019-05-23T08:48:13.147Z,15.35
2019-05-23T08:50:45.323Z,15.43
2019-05-23T08:53:17.315Z,15.65
2019-05-23T08:55:49.967Z,15.85
2019-05-23T08:58:22.099Z,16.11
2019-05-23T09:00:55.049Z,16.16
2019-05-23T09:03:27.109Z,16.23
2019-05-23T09:05:59.859Z,16.32
2019-05-23T09:08:34.972Z,16.26
2019-05-23T09:11:07.255Z,16.04
2019-05-23T09:13:39.320Z,16.04
2019-05-23T09:16:12.232Z,15.97
2019-05-23T09:18:44.471Z,15.98
2019-05-23T09:21:16.821Z,15.76
2019-05-23T09:23:49.022Z,15.65
2019-05-23T09:26:21.080Z,15.60
2019-05-23T09:28:53.321Z,15.49
2019-05-23T09:31:25.378Z,15.61
2019-05-23T09:33:57.293Z,15.74
2019-05-23T09:36:30.173Z,15.70
2019-05-23T09:39:02.468Z,15.78
2019-05-23T09:41:35.257Z,15.79
2019-05-23T09:44:07.842Z,15.92
2019-05-23T09:46:40.279Z,16.09
2019-05-23T09:49:12.710Z,16.11
2019-05-23T09:51:45.658Z,16.20
2019-05-23T09:54:18.989Z,16.32
2019-05-23T09:56:51.847Z,16.06
2019-05-23T09:59:25.912Z,16.02
2019-05-23T10:01:59.355Z,16.14
2019-05-23T10:04:31.473Z,16.04
2019-05-23T10:07:03.645Z,15.89
2019-05-23T10:09:40.361Z,15.75
2019-05-23T10:12:12.391Z,15.68
2019-05-23T10:14:44.443Z,15.53
2019-05-23T10:17:16.476Z,15.56
2019-05-23T10:19:48.527Z,15.73
2019-05-23T10:22:21.013Z,15.74
2019-05-23T10:24:53.098Z,15.67
2019-05-23T10:27:25.093Z,15.66
2019-05-23T10:29:57.168Z,15.52
2019-05-23T10:32:29.266Z,15.54
2019-05-23T10:35:01.405Z,15.42
2019-05-23T10:37:33.357Z,15.27
2019-05-23T10:40:07.319Z,15.31
2019-05-23T10:42:40.143Z,15.44
2019-05-23T10:45:12.105Z,15.60
2019-05-23T10:47:44.075Z,15.80
2019-05-23T10:50:17.510Z,15.86
2019-05-23T10:52:49.954Z,15.89
2019-05-23T10:55:21.883Z,15.88
2019-05-23T10:57:53.896Z,15.85
2019-05-23T11:00:29.095Z,15.88
2019-05-23T11:03:01.416Z,16.09
2019-05-23T11:05:33.616Z,16.24
2019-05-23T11:08:06.821Z,16.06
2019-05-23T11:10:38.944Z,15.95
2019-05-23T11:13:11.074Z,15.76
2019-05-23T11:15:44.017Z,15.73
2019-05-23T11:18:16.475Z,15.56
2019-05-23T11:20:48.714Z,15.47
2019-05-23T11:23:33.195Z,15.39
2019-05-23T11:26:05.668Z,15.28
2019-05-23T11:28:38.093Z,15.26
2019-05-23T11:31:10.851Z,15.12
2019-05-23T11:33:42.910Z,15.00
2019-05-23T11:36:31.751Z,14.94
2019-05-23T11:38:49.915Z,14.93
2019-05-23T11:41:22.069Z,15.11
2019-05-23T11:43:54.031Z,15.30
2019-05-23T11:46:30.157Z,15.36
2019-05-23T11:49:03.936Z,15.36
2019-05-23T11:51:36.863Z,15.34
2019-05-23T11:54:10.494Z,15.52
2019-05-23T11:56:43.048Z,15.63
2019-05-23T11:59:15.252Z,15.81
2019-05-23T12:02:09.150Z,15.78
2019-05-23T12:04:42.983Z,15.48
2019-05-23T12:07:21.933Z,15.32
2019-05-23T12:09:54.136Z,15.37
2019-05-23T12:12:26.426Z,15.39
2019-05-23T12:15:00.232Z,15.16
2019-05-23T12:17:33.762Z,14.95
2019-05-23T12:20:07.129Z,14.87
2019-05-23T12:22:39.323Z,15.01
2019-05-23T12:25:21.869Z,15.10
2019-05-23T12:27:46.585Z,15.03
2019-05-23T12:30:20.303Z,15.11
2019-05-23T12:32:55.128Z,15.24
2019-05-23T12:35:27.345Z,15.24
2019-05-23T12:38:02.430Z,15.38
2019-05-23T12:40:33.949Z,15.38
2019-05-23T12:43:06.088Z,15.27
2019-05-23T12:45:38.048Z,15.28
2019-05-23T12:48:17.983Z,15.29
2019-05-23T12:50:53.743Z,15.35
2019-05-23T12:53:24.494Z,15.00
2019-05-23T12:55:56.511Z,14.85
2019-05-23T12:58:30.335Z,14.67
2019-05-23T13:01:02.993Z,14.62
2019-05-23T13:03:35.340Z,14.52
2019-05-23T13:06:07.542Z,14.55
2019-05-23T13:08:39.763Z,14.51
2019-05-23T13:11:12.034Z,14.50
2019-05-23T13:13:44.125Z,14.54
2019-05-23T13:16:16.189Z,14.57
2019-05-23T13:18:48.179Z,14.55
2019-05-23T13:21:20.637Z,14.84
2019-05-23T13:23:52.639Z,14.80
2019-05-23T13:26:24.672Z,14.81
2019-05-23T13:28:56.721Z,14.83
2019-05-23T13:31:28.878Z,14.83
2019-05-23T13:34:01.496Z,14.85
2019-05-23T13:36:33.687Z,14.73
2019-05-23T13:39:10.595Z,14.49
2019-05-23T13:41:42.725Z,14.48
2019-05-23T13:44:32.074Z,14.64
2019-05-23T13:46:49.415Z,14.61
2019-05-23T13:49:22.165Z,14.60
2019-05-23T13:51:54.252Z,14.47
2019-05-23T13:54:26.681Z,14.37
2019-05-23T13:56:59.649Z,14.42
2019-05-23T13:59:31.905Z,14.55
2019-05-23T14:02:06.071Z,14.59
2019-05-23T14:04:38.266Z,14.56
2019-05-23T14:07:12.272Z,14.44
2019-05-23T14:09:44.462Z,14.09
2019-05-23T14:12:21.343Z,13.92
2019-05-23T14:14:50.831Z,13.77
2019-05-23T14:17:51.132Z,13.64
2019-05-23T14:20:24.391Z,13.63
2019-05-23T14:23:13.788Z,13.65
2019-05-23T14:25:47.018Z,13.65
2019-05-23T14:28:19.038Z,13.65
2019-05-23T14:31:12.953Z,13.59
2019-05-23T14:33:52.394Z,13.52
2019-05-23T14:36:43.255Z,13.57
2019-05-23T14:39:34.259Z,13.66
2019-05-23T14:42:13.382Z,13.65
2019-05-23T14:44:45.452Z,13.65
2019-05-23T14:47:41.901Z,13.69
2019-05-23T14:50:33.250Z,13.79
2019-05-23T14:53:06.416Z,13.77
2019-05-23T14:55:38.480Z,13.85
2019-05-23T14:58:11.309Z,13.89
2019-05-23T15:00:45.276Z,13.85
2019-05-23T15:03:17.893Z,13.76
2019-05-23T15:05:50.231Z,13.71
2019-05-23T15:08:22.285Z,13.71
2019-05-23T15:10:54.600Z,13.60
2019-05-23T15:13:26.729Z,13.67
2019-05-23T15:15:58.828Z,13.67
2019-05-23T15:18:31.240Z,13.66
2019-05-23T15:21:03.488Z,13.69
2019-05-23T15:23:35.555Z,13.70
2019-05-23T15:26:22.476Z,13.74
2019-05-23T15:28:41.426Z,13.70
2019-05-23T15:31:13.575Z,13.62
2019-05-23T15:33:45.809Z,13.60
2019-05-23T15:36:18.285Z,13.50
2019-05-23T15:39:06.319Z,13.51
2019-05-23T15:41:24.133Z,13.50
2019-05-23T15:43:56.235Z,13.46
2019-05-23T15:46:28.499Z,13.43
2019-05-23T15:49:01.211Z,13.31
2019-05-23T15:51:39.757Z,13.28
2019-05-23T15:54:19.551Z,13.28
2019-05-23T15:57:07.532Z,13.23
2019-05-23T15:59:48.164Z,13.24
2019-05-23T16:02:26.884Z,13.19
2019-05-23T16:05:00.785Z,13.18
2019-05-23T16:07:33.075Z,13.16
2019-05-23T16:10:05.841Z,13.21
2019-05-23T16:12:38.073Z,13.19
2019-05-23T16:15:11.345Z,13.09
2019-05-23T16:17:43.354Z,13.03
2019-05-23T16:20:15.781Z,12.99
2019-05-23T16:22:47.772Z,12.99
2019-05-23T16:25:20.336Z,12.92
2019-05-23T16:27:52.746Z,12.87
2019-05-23T16:30:25.560Z,12.90
2019-05-23T16:32:57.644Z,12.86
2019-05-23T16:35:29.676Z,12.89
2019-05-23T16:38:01.689Z,12.96
2019-05-23T16:40:33.703Z,12.93
2019-05-23T16:43:05.792Z,12.89
2019-05-23T16:45:37.820Z,12.91
2019-05-23T16:48:10.520Z,12.96
2019-05-23T16:50:42.601Z,12.96
2019-05-23T16:53:14.653Z,12.99
2019-05-23T16:55:56.414Z,12.93
2019-05-23T16:58:42.066Z,12.92
2019-05-23T17:01:54.887Z,12.88
2019-05-23T17:04:22.327Z,12.85
2019-05-23T17:06:59.883Z,12.83
2019-05-23T17:10:09.027Z,12.80
2019-05-23T17:13:07.498Z,12.82
2019-05-23T17:16:01.288Z,12.75
2019-05-23T17:18:58.198Z,12.69
2019-05-23T17:21:44.286Z,12.66
2019-05-23T17:24:33.876Z,12.57
2019-05-23T17:27:35.255Z,12.54
2019-05-23T17:30:24.681Z,12.53
2019-05-23T17:32:57.453Z,12.56
2019-05-23T17:35:29.641Z,12.54
2019-05-23T17:38:01.732Z,12.53
2019-05-23T17:40:34.417Z,12.53
2019-05-23T17:43:06.499Z,12.54
2019-05-23T17:45:38.520Z,12.52
2019-05-23T17:48:10.503Z,12.49
2019-05-23T17:50:42.994Z,12.49
2019-05-23T17:53:14.986Z,12.44
2019-05-23T17:55:47.803Z,12.47
2019-05-23T17:58:20.609Z,12.44
2019-05-23T18:00:53.252Z,12.44
2019-05-23T18:03:25.522Z,12.52
2019-05-23T18:05:58.072Z,12.53
2019-05-23T18:08:37.807Z,12.61
2019-05-23T18:11:10.652Z,12.62
2019-05-23T18:13:43.425Z,12.56
2019-05-23T18:16:16.465Z,12.60
2019-05-23T18:18:48.689Z,12.51
2019-05-23T18:21:22.597Z,12.59
2019-05-23T18:23:55.852Z,12.62
2019-05-23T18:26:27.847Z,12.57
2019-05-23T18:29:00.686Z,12.63
2019-05-23T18:31:34.527Z,12.64
2019-05-23T18:34:08.780Z,12.65
2019-05-23T18:36:41.468Z,12.66
2019-05-23T18:39:16.843Z,12.68
2019-05-23T18:41:48.841Z,12.66
2019-05-23T18:44:22.190Z,12.65
2019-05-23T18:47:12.073Z,12.66
2019-05-23T18:49:44.729Z,12.67
2019-05-23T18:52:16.703Z,12.66
2019-05-23T18:54:48.824Z,12.67
2019-05-23T18:57:21.742Z,12.71
2019-05-23T18:59:54.198Z,12.73
2019-05-23T19:02:27.122Z,12.74
2019-05-23T19:04:59.907Z,12.73
2019-05-23T19:07:49.602Z,12.68
2019-05-23T19:10:22.291Z,12.62
2019-05-23T19:12:54.404Z,12.60
2019-05-23T19:15:26.880Z,12.58
2019-05-23T19:17:59.097Z,12.60
2019-05-23T19:20:54.486Z,12.55
2019-05-23T19:23:23.218Z,12.54
2019-05-23T19:25:56.086Z,12.52
2019-05-23T19:28:28.100Z,12.52
2019-05-23T19:31:00.336Z,12.53
2019-05-23T19:33:33.299Z,12.54
2019-05-23T19:36:06.391Z,12.54
2019-05-23T19:38:56.150Z,12.53
2019-05-23T19:41:37.532Z,12.56
2019-05-23T19:44:02.613Z,12.59
2019-05-23T19:46:52.364Z,12.62
2019-05-23T19:49:27.199Z,12.68
2019-05-23T19:51:58.699Z,12.70
2019-05-23T19:54:48.616Z,12.74
2019-05-23T19:57:38.546Z,12.80
2019-05-23T20:00:14.468Z,12.73
2019-05-23T20:02:51.211Z,12.77
2019-05-23T20:05:28.158Z,12.80
2019-05-23T20:08:00.277Z,12.83
2019-05-23T20:10:33.012Z,12.81
2019-05-23T20:13:05.423Z,12.79
2019-05-23T20:15:37.556Z,12.80
2019-05-23T20:18:11.408Z,12.81
2019-05-23T20:20:43.773Z,12.81
2019-05-23T20:23:33.299Z,12.82
2019-05-23T20:26:08.247Z,12.81
2019-05-23T20:28:58.019Z,12.81
2019-05-23T20:31:30.076Z,12.81
2019-05-23T20:34:02.203Z,12.78
2019-05-23T20:36:36.018Z,12.75
2019-05-23T20:39:27.441Z,12.73
2019-05-23T20:42:17.207Z,12.74
2019-05-23T20:45:07.499Z,12.73
2019-05-23T20:47:39.715Z,12.73
2019-05-23T20:50:12.169Z,12.75
2019-05-23T20:52:44.395Z,12.75
2019-05-23T20:55:16.447Z,12.76
2019-05-23T20:57:48.568Z,12.71
2019-05-23T21:01:00.358Z,12.71
2019-05-23T21:03:52.221Z,12.70
2019-05-23T21:06:42.074Z,12.70
2019-05-23T21:09:15.955Z,12.67
2019-05-23T21:11:48.221Z,12.62
2019-05-23T21:14:20.985Z,12.61
2019-05-23T21:16:54.808Z,12.59
2019-05-23T21:19:44.586Z,12.59
2019-05-23T21:22:16.754Z,12.61
2019-05-23T21:25:08.059Z,12.62
2019-05-23T21:27:40.294Z,12.65
2019-05-23T21:30:12.510Z,12.62
2019-05-23T21:32:44.591Z,12.61
2019-05-23T21:35:16.669Z,12.68
2019-05-23T21:38:06.589Z,12.71
2019-05-23T21:40:47.423Z,12.70
2019-05-23T21:43:20.189Z,12.70
2019-05-23T21:46:27.802Z,12.70
2019-05-23T21:49:35.613Z,12.71
2019-05-23T21:52:08.529Z,12.74
2019-05-23T21:54:40.583Z,12.72
2019-05-23T21:57:30.389Z,12.76
2019-05-23T22:00:22.341Z,12.81
2019-05-23T22:02:54.336Z,12.81
2019-05-23T22:05:44.102Z,12.81
2019-05-23T22:08:33.599Z,12.78
2019-05-23T22:11:23.390Z,12.73
2019-05-23T22:14:13.380Z,12.70
2019-05-23T22:16:45.371Z,12.70
2019-05-23T22:19:18.860Z,12.67
2019-05-23T22:21:51.058Z,12.68
2019-05-23T22:24:23.279Z,12.66
2019-05-23T22:26:55.329Z,12.60
2019-05-23T22:29:45.098Z,12.60
2019-05-23T22:32:18.789Z,12.65
2019-05-23T22:35:08.443Z,12.66
2019-05-23T22:37:42.556Z,12.65
2019-05-23T22:40:15.119Z,12.72
2019-05-23T22:42:47.152Z,12.73
2019-05-23T22:45:37.967Z,12.73
2019-05-23T22:48:27.428Z,12.70
2019-05-23T22:50:59.394Z,12.65
2019-05-23T22:53:31.365Z,12.68
2019-05-23T22:56:03.327Z,12.69
2019-05-23T22:58:35.394Z,12.71
2019-05-23T23:01:07.573Z,12.73
2019-05-23T23:03:39.570Z,12.73
2019-05-23T23:06:29.479Z,12.68
2019-05-23T23:09:37.334Z,12.65
2019-05-23T23:12:27.104Z,12.55
2019-05-23T23:14:59.094Z,12.49
2019-05-23T23:17:49.020Z,12.48
2019-05-23T23:20:39.422Z,12.45
2019-05-23T23:23:29.227Z,12.39
2019-05-23T23:26:01.210Z,12.32
2019-05-23T23:28:33.563Z,12.29
2019-05-23T23:31:05.726Z,12.25
2019-05-23T23:33:37.669Z,12.23
2019-05-23T23:36:10.468Z,12.22
2019-05-23T23:39:00.312Z,12.15
2019-05-23T23:41:50.097Z,12.16
2019-05-23T23:44:38.666Z,12.11
2019-05-23T23:47:28.448Z,12.10
2019-05-23T23:50:18.560Z,12.09
2019-05-23T23:53:08.200Z,12.09
2019-05-23T23:55:58.374Z,12.10
2019-05-23T23:58:29.815Z,12.11
